Aérodrome :
LOGIN :

S'inscrire | Disclaimer

   EN    FR    IT 

 










Légende :    VFR   VFR Marginal   IFR   IFR Intensif   IFR Très Intensif
Visi : 
Plafond : 
>= 8 km
>= 3000ft
5 à 8 km
1000 à 3000 ft
1500m à 5 km
500 à 1000 ft
800 à 1500m
200 à 500 ft
< 800m
< 200 ft
Symboles :   Orages  Brouillard  Fortes neiges  Fortes précipitations  Vent > 20 kt
SIGMETs :   Divers  Orages  Givrage  Turbulence  Onde Orograph.  Cendres Volcan.






- Altitude de l'aérodrome : 1306 ft
- Code IATA : ACH


LSZR - Alten Rhein

DERNIER METAR :
  • 291750Z 26008KT 9999 SCT035 BKN050 06/02 Q1016 NOSIG RMK N

METARs EXPIRÉS :
  • 291720Z 26008KT 9999 VCSH FEW025 SCT035 BKN050 06/02 Q1015 NOSIG RMK M
  • 291650Z 26008KT 9999 VCSH FEW025 SCT035 BKN050 06/03 Q1015 NOSIG RMK M
  • 291620Z 26007KT 9999 VCSH FEW025 SCT035 BKN060 05/02 Q1015 NOSIG RMK L
  • 291550Z 26007KT 9999 VCSH FEW025 SCT035 BKN060 05/02 Q1015 NOSIG RMK L
  • 291520Z 26007KT 200V300 9999 VCSH SCT035 BKN060 05/02 Q1014 NOSIG RMK K

TAF TAF LSZR
Valide du 29 à 15h jusqu'au 30 à 00h UTC


291425Z 2915/2924 26010KT 9999 SCT030 BKN050
TEMPO 2915/2918 28015G25KT SHRA
ATIS : +41 71 858 51 66



MET'MAP, la Météo Aéronautique d'un coup d'oeil ! - Copyright ORBIFLY Décembre 2007 - Disclaimer

ORBIFLY MET'MAP TEAM :

Programmation & Développement : Alexandra Zaïnal
Sur une idée originale de : Baudouin d'Aumeries
Assistance à la programmation : Marc-Olivier Méhu
Soutien technique & logistique : Manuel Goepfert

Contact : metmap@orbifly.com




SOURCES & CREDITS :

   NOAA